Time;durP1;ratioP1;P1;durP2;ratioP2;P2;SDS_P1;SDS_P2;PMS_P1;PMS_P2;Temp;Humidity;BMP_temperature;BMP_pressure;BME280_temperature;BME280_humidity;BME280_pressure;Samples;Min_cycle;Max_cycle;Signal;HPM_P1;HPM_P2
2021/01/05 00:02:13;;;;;;;26.27;11.65;;;4.30;99.90;;;;;;5072303;28;20094;-70
2021/01/05 00:04:39;;;;;;;19.40;10.05;;;4.30;99.90;;;;;;5071285;28;20170;-70
2021/01/05 00:07:05;;;;;;;18.52;9.40;;;4.30;99.90;;;;;;5072137;28;20109;-71
2021/01/05 00:09:32;;;;;;;25.50;11.18;;;4.20;99.90;;;;;;5072064;28;20032;-70
2021/01/05 00:12:06;;;;;;;19.83;10.18;;;4.20;99.90;;;;;;5073760;28;20036;-71
2021/01/05 00:14:32;;;;;;;20.83;10.57;;;4.20;99.90;;;;;;5072149;28;20047;-71
2021/01/05 00:16:58;;;;;;;23.40;11.07;;;4.30;99.90;;;;;;5071058;28;20120;-71
2021/01/05 00:19:25;;;;;;;22.05;10.80;;;4.40;99.90;;;;;;5072257;28;20116;-70
2021/01/05 00:21:52;;;;;;;16.42;8.85;;;4.40;99.90;;;;;;5072005;28;20056;-71
2021/01/05 00:24:18;;;;;;;21.95;8.90;;;4.50;99.90;;;;;;5070564;28;20032;-71
2021/01/05 00:26:44;;;;;;;20.05;9.43;;;4.40;99.90;;;;;;5073485;28;20036;-71
2021/01/05 00:29:10;;;;;;;18.90;9.27;;;4.40;99.90;;;;;;5054305;28;20033;-71
2021/01/05 00:31:37;;;;;;;18.15;9.05;;;4.40;99.90;;;;;;5062840;28;20033;-70
2021/01/05 00:34:03;;;;;;;17.70;9.13;;;4.40;99.90;;;;;;5072188;28;20047;-70
2021/01/05 00:36:29;;;;;;;20.50;9.73;;;4.20;99.90;;;;;;5070829;28;20048;-70
2021/01/05 00:38:55;;;;;;;18.98;8.68;;;4.30;99.90;;;;;;5073335;28;20020;-70
2021/01/05 00:41:21;;;;;;;18.90;8.70;;;4.30;99.90;;;;;;5071709;28;20036;-69
2021/01/05 00:43:47;;;;;;;20.33;9.27;;;4.30;99.90;;;;;;5070819;28;20090;-70
2021/01/05 00:46:14;;;;;;;16.35;9.02;;;4.40;99.90;;;;;;5071659;28;20501;-70
2021/01/05 00:48:41;;;;;;;19.40;9.20;;;4.40;99.90;;;;;;5071677;28;20047;-70
2021/01/05 00:51:09;;;;;;;18.13;9.53;;;4.40;99.90;;;;;;5073052;28;20416;-71
2021/01/05 00:53:35;;;;;;;18.60;8.55;;;4.30;99.90;;;;;;5071591;28;20144;-70
2021/01/05 00:56:00;;;;;;;25.08;10.88;;;4.30;99.90;;;;;;5070588;28;20522;-70
2021/01/05 00:58:26;;;;;;;17.02;8.45;;;4.30;99.90;;;;;;5071473;28;20032;-70
2021/01/05 01:00:52;;;;;;;16.73;9.30;;;4.30;99.90;;;;;;5071346;28;20060;-70
2021/01/05 01:03:19;;;;;;;21.92;10.27;;;4.30;99.90;;;;;;5071385;28;20020;-69
2021/01/05 01:05:45;;;;;;;21.08;10.27;;;4.30;99.90;;;;;;5073119;28;20016;-70
2021/01/05 01:08:12;;;;;;;22.40;9.73;;;4.30;99.90;;;;;;5071508;28;20032;-70
2021/01/05 01:10:39;;;;;;;20.85;9.65;;;4.30;99.90;;;;;;5071372;28;20394;-71
2021/01/05 01:13:05;;;;;;;21.33;9.60;;;4.30;99.90;;;;;;5071556;28;20046;-71
2021/01/05 01:15:31;;;;;;;19.38;9.75;;;4.40;99.90;;;;;;5070402;28;20033;-70
2021/01/05 01:17:56;;;;;;;23.15;9.77;;;4.40;99.90;;;;;;5073114;28;20033;-70
2021/01/05 01:20:22;;;;;;;21.13;9.85;;;4.40;99.90;;;;;;5070512;28;20072;-70
2021/01/05 01:22:48;;;;;;;20.35;9.98;;;4.40;99.90;;;;;;5071521;28;20036;-69
2021/01/05 01:25:14;;;;;;;17.92;9.18;;;4.40;99.90;;;;;;5071352;28;20477;-70
2021/01/05 01:27:40;;;;;;;25.38;10.52;;;4.40;99.90;;;;;;5071251;28;20104;-70
2021/01/05 01:30:07;;;;;;;21.13;9.73;;;4.50;99.90;;;;;;5072656;28;20174;-71
2021/01/05 01:32:33;;;;;;;20.30;9.68;;;4.50;99.90;;;;;;5071407;28;20060;-69
2021/01/05 01:34:59;;;;;;;18.17;10.05;;;4.50;99.90;;;;;;5070963;28;20071;-69
2021/01/05 01:37:25;;;;;;;20.90;9.40;;;4.40;99.90;;;;;;5070993;28;20040;-70
2021/01/05 01:39:50;;;;;;;20.90;9.30;;;4.50;99.90;;;;;;5071071;28;20541;-71
2021/01/05 01:42:18;;;;;;;22.58;10.27;;;4.40;99.90;;;;;;5071367;28;20024;-69
2021/01/05 01:44:46;;;;;;;21.77;10.07;;;4.40;99.90;;;;;;5076480;28;20033;-70
2021/01/05 01:47:23;;;;;;;23.17;9.83;;;4.50;99.90;;;;;;5075059;28;20036;-71
2021/01/05 01:50:00;;;;;;;18.63;9.65;;;4.50;99.90;;;;;;5074972;28;20303;-69
2021/01/05 01:53:04;;;;;;;20.65;10.15;;;4.50;99.90;;;;;;5075059;28;20021;-69
2021/01/05 01:55:54;;;;;;;22.98;11.55;;;4.40;99.90;;;;;;5074943;28;20040;-70
2021/01/05 01:58:34;;;;;;;25.25;10.82;;;4.40;99.90;;;;;;5074831;28;20089;-70
2021/01/05 02:01:08;;;;;;;21.77;9.88;;;4.40;99.90;;;;;;5074791;28;20533;-70
2021/01/05 02:03:54;;;;;;;23.13;9.73;;;4.40;99.90;;;;;;5074523;28;20050;-70
2021/01/05 02:06:58;;;;;;;24.70;10.63;;;4.50;99.90;;;;;;5074463;28;20028;-69
2021/01/05 02:09:27;;;;;;;22.80;10.43;;;4.50;99.90;;;;;;5073923;28;20040;-69
2021/01/05 02:12:27;;;;;;;21.67;10.10;;;4.50;99.90;;;;;;5076030;28;20028;-70
2021/01/05 02:15:10;;;;;;;22.27;10.98;;;4.50;99.90;;;;;;5074549;28;20063;-70
2021/01/05 02:17:48;;;;;;;21.25;10.18;;;4.50;99.90;;;;;;5074423;28;20462;-69
2021/01/05 02:20:27;;;;;;;26.10;11.18;;;4.60;99.90;;;;;;5074388;28;20045;-71
2021/01/05 02:23:12;;;;;;;22.17;10.75;;;4.50;99.90;;;;;;5073060;28;20055;-71
2021/01/05 02:25:52;;;;;;;21.75;10.15;;;4.50;99.90;;;;;;5074239;28;20024;-70
2021/01/05 02:28:21;;;;;;;24.92;9.82;;;4.50;99.90;;;;;;5074142;28;20032;-70
2021/01/05 02:30:57;;;;;;;21.63;9.52;;;4.50;99.90;;;;;;5074332;28;20032;-69
2021/01/05 02:33:50;;;;;;;26.00;10.18;;;4.50;99.90;;;;;;5073186;28;20043;-70
2021/01/05 02:36:34;;;;;;;24.23;10.30;;;4.50;99.90;;;;;;5073963;28;20081;-69
2021/01/05 02:39:31;;;;;;;22.70;9.90;;;4.40;99.90;;;;;;5075538;28;20031;-69
2021/01/05 02:42:24;;;;;;;22.38;9.27;;;4.40;99.90;;;;;;5074188;28;20060;-70
2021/01/05 02:45:18;;;;;;;23.55;9.23;;;4.40;99.90;;;;;;5074178;28;20064;-71
2021/01/05 02:48:25;;;;;;;27.67;10.90;;;4.40;99.90;;;;;;5074104;28;20418;-70
2021/01/05 02:51:16;;;;;;;25.92;10.18;;;4.40;99.90;;;;;;5057857;28;20076;-70
2021/01/05 02:54:01;;;;;;;24.25;9.93;;;4.40;99.90;;;;;;5073945;28;20048;-69
2021/01/05 02:57:04;;;;;;;24.88;10.27;;;4.40;99.90;;;;;;5073275;28;20140;-70
2021/01/05 03:00:20;;;;;;;23.30;9.95;;;4.40;99.90;;;;;;5073653;28;20036;-70
2021/01/05 03:02:57;;;;;;;25.58;12.40;;;4.40;99.90;;;;;;5073909;28;20037;-70
2021/01/05 03:05:23;;;;;;;25.75;10.90;;;4.50;99.90;;;;;;5073766;28;20033;-71
2021/01/05 03:07:50;;;;;;;28.73;11.77;;;4.50;99.90;;;;;;5073627;28;20032;-70
2021/01/05 03:10:51;;;;;;;26.40;11.80;;;4.40;99.90;;;;;;5072549;28;20044;-69
2021/01/05 03:13:23;;;;;;;25.08;11.93;;;4.30;99.90;;;;;;5073354;28;20028;-69
2021/01/05 03:15:57;;;;;;;27.83;11.63;;;4.30;99.90;;;;;;5073291;28;20036;-68
2021/01/05 03:19:06;;;;;;;26.00;12.27;;;4.30;99.90;;;;;;5072120;28;20477;-68
2021/01/05 03:21:38;;;;;;;25.20;11.48;;;4.20;99.90;;;;;;5053413;28;20118;-68
2021/01/05 03:24:06;;;;;;;28.15;11.80;;;4.20;99.90;;;;;;5074380;28;20090;-70
2021/01/05 03:26:41;;;;;;;26.10;11.90;;;4.20;99.90;;;;;;5073315;28;20148;-69
2021/01/05 03:29:08;;;;;;;26.30;11.48;;;4.30;99.90;;;;;;5072966;28;20123;-70
2021/01/05 03:31:42;;;;;;;25.58;11.40;;;4.30;99.90;;;;;;5072973;28;20033;-70
2021/01/05 03:34:07;;;;;;;24.55;10.90;;;4.30;99.90;;;;;;5072608;28;20033;-70
2021/01/05 03:36:33;;;;;;;25.48;11.13;;;4.30;99.90;;;;;;5072695;28;20059;-70
2021/01/05 03:38:58;;;;;;;27.52;12.07;;;4.30;99.90;;;;;;5074306;28;20039;-70
2021/01/05 03:41:24;;;;;;;28.83;13.45;;;4.30;99.90;;;;;;5072734;28;20032;-70
2021/01/05 03:43:50;;;;;;;33.28;12.13;;;4.40;99.90;;;;;;5072730;28;20043;-69
2021/01/05 03:46:16;;;;;;;24.25;11.23;;;4.30;99.90;;;;;;5072613;28;20036;-69
2021/01/05 03:48:41;;;;;;;25.83;11.98;;;4.30;99.90;;;;;;5072956;28;20121;-69
2021/01/05 03:51:07;;;;;;;28.63;12.05;;;4.30;99.90;;;;;;5074161;28;20110;-69
2021/01/05 03:53:33;;;;;;;25.45;11.68;;;4.30;99.90;;;;;;5072506;28;20466;-70
2021/01/05 03:55:58;;;;;;;30.05;13.23;;;4.30;99.90;;;;;;5072592;28;20079;-69
2021/01/05 03:58:24;;;;;;;28.20;12.20;;;4.20;99.90;;;;;;5072546;28;20121;-69
2021/01/05 04:00:50;;;;;;;31.77;13.07;;;4.20;99.90;;;;;;5071427;28;20488;-69
2021/01/05 04:03:16;;;;;;;30.33;12.98;;;4.20;99.90;;;;;;5071625;28;20034;-69
2021/01/05 04:05:41;;;;;;;26.92;12.35;;;4.30;99.90;;;;;;5053307;28;20096;-70
2021/01/05 04:08:07;;;;;;;29.45;12.40;;;4.30;99.90;;;;;;5051582;28;20144;-69
2021/01/05 04:10:33;;;;;;;29.40;12.63;;;4.30;99.90;;;;;;5052356;28;20102;-69
2021/01/05 04:12:58;;;;;;;28.25;12.60;;;4.20;99.90;;;;;;5052327;28;20043;-69
2021/01/05 04:15:29;;;;;;;26.88;12.30;;;4.30;99.90;;;;;;5052252;28;20035;-69
2021/01/05 04:17:57;;;;;;;30.25;13.25;;;4.30;99.90;;;;;;5053763;28;20109;-70
2021/01/05 04:20:24;;;;;;;32.85;12.45;;;4.30;99.90;;;;;;5051886;28;20397;-71
2021/01/05 04:22:50;;;;;;;32.03;11.32;;;4.40;99.90;;;;;;5065105;28;20123;-70
2021/01/05 04:25:19;;;;;;;31.25;12.45;;;4.40;99.90;;;;;;5063120;28;20029;-70
2021/01/05 04:27:46;;;;;;;28.10;12.25;;;4.30;99.90;;;;;;5051991;28;20033;-69
2021/01/05 04:30:26;;;;;;;25.20;11.37;;;4.30;99.90;;;;;;5053503;28;20095;-69
2021/01/05 04:32:54;;;;;;;30.33;13.80;;;4.30;99.90;;;;;;5052282;28;20314;-69
2021/01/05 04:35:21;;;;;;;28.58;12.27;;;4.30;99.90;;;;;;5052115;28;20053;-69
2021/01/05 04:37:47;;;;;;;28.80;12.90;;;4.40;99.90;;;;;;5064806;28;20576;-70
2021/01/05 04:40:34;;;;;;;27.88;12.57;;;4.40;99.90;;;;;;5071747;28;20033;-70
2021/01/05 04:43:19;;;;;;;31.58;12.90;;;4.40;99.90;;;;;;5070727;28;20032;-69
2021/01/05 04:46:19;;;;;;;25.67;11.80;;;4.50;99.90;;;;;;5070648;28;20032;-69
2021/01/05 04:48:57;;;;;;;26.35;11.95;;;4.40;99.90;;;;;;5071774;28;20024;-69
2021/01/05 04:51:35;;;;;;;27.23;11.43;;;4.40;99.90;;;;;;5072005;28;20028;-69
2021/01/05 04:54:13;;;;;;;28.45;12.00;;;4.40;99.90;;;;;;5073135;28;20020;-69
2021/01/05 04:57:11;;;;;;;29.17;11.55;;;4.40;99.90;;;;;;5072092;28;20036;-69
2021/01/05 04:59:54;;;;;;;29.83;12.27;;;4.40;99.90;;;;;;5071782;28;20055;-71
2021/01/05 05:02:29;;;;;;;32.72;12.27;;;4.40;99.90;;;;;;5054138;28;20064;-70
2021/01/05 05:05:22;;;;;;;34.20;13.60;;;4.40;99.90;;;;;;5051672;28;20124;-70
2021/01/05 05:08:46;;;;;;;30.85;11.93;;;4.40;99.90;;;;;;5045890;28;20041;-69
2021/01/05 05:11:17;;;;;;;29.10;13.10;;;4.40;99.90;;;;;;5009731;28;20701;-69
2021/01/05 05:14:00;;;;;;;34.50;13.02;;;4.40;99.90;;;;;;5029471;28;20497;-69
2021/01/05 05:16:44;;;;;;;27.60;13.05;;;4.30;99.90;;;;;;5061328;28;20024;-69
2021/01/05 05:19:24;;;;;;;33.80;12.77;;;4.40;99.90;;;;;;5074828;28;20035;-69
2021/01/05 05:21:58;;;;;;;29.42;12.60;;;4.40;99.90;;;;;;5075459;28;20489;-69
2021/01/05 05:24:49;;;;;;;27.60;12.48;;;4.50;99.90;;;;;;5075274;28;20025;-69
2021/01/05 05:27:32;;;;;;;28.00;12.02;;;4.40;99.90;;;;;;5075169;28;20031;-68
2021/01/05 05:30:29;;;;;;;30.92;12.73;;;4.30;99.90;;;;;;5076816;28;20472;-68
2021/01/05 05:32:58;;;;;;;29.60;12.05;;;4.30;99.90;;;;;;5072253;28;20047;-69
2021/01/05 05:35:55;;;;;;;33.67;12.80;;;4.30;99.90;;;;;;5055977;28;20033;-69
2021/01/05 05:38:42;;;;;;;32.40;12.88;;;4.30;99.90;;;;;;5055139;28;20048;-68
2021/01/05 05:41:28;;;;;;;28.92;12.75;;;4.30;99.90;;;;;;5055191;28;20108;-69
2021/01/05 05:44:22;;;;;;;31.70;13.15;;;4.30;99.90;;;;;;5054901;28;20401;-68
2021/01/05 05:46:57;;;;;;;33.72;13.23;;;4.20;99.90;;;;;;5054877;28;20033;-69
2021/01/05 05:49:38;;;;;;;34.47;13.27;;;4.20;99.90;;;;;;5054755;28;20021;-69
2021/01/05 05:52:12;;;;;;;33.42;13.50;;;4.30;99.90;;;;;;5055134;28;20033;-68
2021/01/05 05:54:38;;;;;;;30.95;12.90;;;4.20;99.90;;;;;;5058783;28;20116;-69
2021/01/05 05:57:30;;;;;;;32.72;14.27;;;4.20;99.90;;;;;;5076095;28;20123;-69
2021/01/05 06:00:14;;;;;;;34.72;13.85;;;4.30;99.90;;;;;;5074833;28;20029;-69
2021/01/05 06:02:41;;;;;;;28.08;12.18;;;4.30;99.90;;;;;;5073449;28;20032;-69
2021/01/05 06:05:20;;;;;;;30.23;12.93;;;4.30;99.90;;;;;;5074261;28;20127;-69
2021/01/05 06:07:46;;;;;;;36.03;12.82;;;4.30;99.90;;;;;;5074734;28;20048;-70
2021/01/05 06:10:12;;;;;;;34.53;13.68;;;4.20;99.90;;;;;;5074430;28;20025;-69
2021/01/05 06:12:37;;;;;;;37.70;14.05;;;4.30;99.90;;;;;;5074571;28;20024;-69
2021/01/05 06:15:03;;;;;;;42.22;14.70;;;4.20;99.90;;;;;;5076194;28;20058;-70
2021/01/05 06:17:29;;;;;;;31.90;13.20;;;4.20;99.90;;;;;;5074478;28;20033;-69
2021/01/05 06:19:54;;;;;;;36.08;14.05;;;4.20;99.90;;;;;;5074349;28;20036;-69
2021/01/05 06:22:20;;;;;;;36.83;13.80;;;4.20;99.90;;;;;;5074221;28;20082;-69
2021/01/05 06:24:46;;;;;;;32.72;13.35;;;4.30;99.90;;;;;;5074170;28;20036;-69
2021/01/05 06:27:11;;;;;;;33.25;12.95;;;4.30;99.90;;;;;;5075821;28;20498;-69
2021/01/05 06:29:37;;;;;;;34.92;13.57;;;4.30;99.90;;;;;;5073319;28;20040;-69
2021/01/05 06:32:03;;;;;;;34.58;12.82;;;4.20;99.90;;;;;;5059234;28;20041;-70
2021/01/05 06:34:28;;;;;;;40.28;13.27;;;4.20;99.90;;;;;;5064650;28;20048;-69
2021/01/05 06:36:54;;;;;;;35.35;13.68;;;4.30;99.90;;;;;;5073205;28;20374;-69
2021/01/05 06:39:19;;;;;;;37.17;13.82;;;4.30;99.90;;;;;;5073880;28;20028;-69
2021/01/05 06:41:45;;;;;;;32.97;12.77;;;4.30;99.90;;;;;;5075348;28;20443;-69
2021/01/05 06:44:11;;;;;;;29.85;11.70;;;4.30;99.90;;;;;;5073887;28;20028;-69
2021/01/05 06:46:36;;;;;;;32.53;12.45;;;4.30;99.90;;;;;;5074155;28;20211;-68
2021/01/05 06:49:02;;;;;;;32.75;13.00;;;4.20;99.90;;;;;;5073837;28;20056;-69
2021/01/05 06:51:27;;;;;;;35.00;13.10;;;4.20;99.90;;;;;;5072687;28;20029;-69
2021/01/05 06:53:53;;;;;;;31.40;11.85;;;4.20;99.90;;;;;;5074289;28;20020;-69
2021/01/05 06:56:19;;;;;;;36.72;12.90;;;4.20;99.90;;;;;;5073507;28;20032;-69
2021/01/05 06:58:44;;;;;;;27.52;12.02;;;4.20;99.90;;;;;;5073801;28;20128;-70
2021/01/05 07:01:10;;;;;;;29.02;11.32;;;4.20;99.90;;;;;;5073572;28;20068;-70
2021/01/05 07:03:35;;;;;;;35.08;12.13;;;4.20;99.90;;;;;;5073523;28;20410;-69
2021/01/05 07:06:01;;;;;;;29.60;11.93;;;4.30;99.90;;;;;;5074964;28;20025;-69
2021/01/05 07:08:27;;;;;;;31.98;11.63;;;4.40;99.90;;;;;;5073298;28;20048;-69
2021/01/05 07:10:52;;;;;;;28.02;10.45;;;4.40;99.90;;;;;;5073158;28;20051;-71
2021/01/05 07:13:18;;;;;;;28.70;11.88;;;4.40;99.90;;;;;;5072900;28;20053;-69
2021/01/05 07:15:44;;;;;;;24.08;10.18;;;4.40;99.90;;;;;;5073074;28;20367;-69
2021/01/05 07:18:10;;;;;;;26.92;12.23;;;4.50;99.90;;;;;;5074636;28;20077;-71
2021/01/05 07:20:35;;;;;;;28.25;11.70;;;4.60;99.90;;;;;;5073122;28;20032;-69
2021/01/05 07:23:01;;;;;;;25.67;10.93;;;4.60;99.90;;;;;;5073117;28;20039;-69
2021/01/05 07:25:26;;;;;;;26.30;11.25;;;4.70;99.90;;;;;;5073160;28;20032;-70
2021/01/05 07:27:52;;;;;;;25.98;10.95;;;4.60;99.90;;;;;;5073079;28;20123;-71
2021/01/05 07:30:19;;;;;;;22.58;10.27;;;4.70;99.90;;;;;;5072873;28;20029;-70
2021/01/05 07:32:44;;;;;;;23.67;10.50;;;4.60;99.90;;;;;;5074422;28;20021;-70
2021/01/05 07:35:12;;;;;;;26.75;11.07;;;4.60;99.90;;;;;;5072746;28;20036;-76
2021/01/05 07:37:41;;;;;;;31.37;11.63;;;4.70;99.90;;;;;;5072483;28;20063;-75
2021/01/05 07:40:07;;;;;;;25.52;11.15;;;4.80;99.90;;;;;;5072397;28;20523;-73
2021/01/05 07:42:34;;;;;;;24.45;10.50;;;4.80;99.90;;;;;;5072384;28;20051;-77
2021/01/05 07:45:08;;;;;;;27.33;11.40;;;4.80;99.90;;;;;;5073174;28;20127;-78
2021/01/05 07:47:36;;;;;;;26.27;11.00;;;4.80;99.90;;;;;;5071714;28;20128;-77
2021/01/05 07:50:05;;;;;;;31.17;11.30;;;4.60;99.90;;;;;;5072637;28;20032;-77
2021/01/05 07:52:40;;;;;;;20.42;9.32;;;4.60;99.90;;;;;;5071338;28;20025;-78
2021/01/05 07:55:16;;;;;;;26.63;10.60;;;4.60;99.90;;;;;;5071079;28;20098;-77
2021/01/05 07:57:42;;;;;;;27.17;10.07;;;4.60;99.90;;;;;;5072155;28;20086;-74
2021/01/05 08:00:11;;;;;;;26.33;11.10;;;4.60;99.90;;;;;;5072940;28;20032;-77
2021/01/05 08:02:37;;;;;;;27.15;11.63;;;4.70;99.90;;;;;;5071572;28;20054;-78
2021/01/05 08:05:03;;;;;;;29.25;11.80;;;4.60;99.90;;;;;;5071435;28;20063;-79
2021/01/05 08:07:29;;;;;;;24.13;10.95;;;4.70;99.90;;;;;;5072168;28;20028;-74
2021/01/05 08:09:54;;;;;;;24.65;10.52;;;4.70;99.90;;;;;;5071782;28;20398;-71
2021/01/05 08:12:20;;;;;;;30.27;11.25;;;4.80;99.90;;;;;;5071709;28;20029;-73
2021/01/05 08:14:47;;;;;;;27.48;11.77;;;4.80;99.90;;;;;;5073502;28;20017;-74
2021/01/05 08:17:13;;;;;;;38.00;16.25;;;4.90;99.90;;;;;;5071849;28;20028;-76
2021/01/05 08:19:43;;;;;;;32.67;11.48;;;5.00;99.90;;;;;;5070958;28;20055;-77
2021/01/05 08:22:10;;;;;;;26.90;12.05;;;4.90;99.90;;;;;;5071917;28;20107;-75
2021/01/05 08:24:36;;;;;;;25.80;10.40;;;5.00;99.90;;;;;;5071671;28;20458;-75
2021/01/05 08:27:02;;;;;;;24.45;10.35;;;4.80;99.90;;;;;;5073408;28;20053;-77
2021/01/05 08:29:29;;;;;;;23.65;10.57;;;4.80;99.90;;;;;;5070293;28;20041;-70
2021/01/05 08:31:55;;;;;;;25.92;11.25;;;4.90;99.90;;;;;;5071754;28;20410;-73
2021/01/05 08:34:20;;;;;;;28.25;11.15;;;4.90;99.90;;;;;;5071805;28;20028;-71
2021/01/05 08:36:46;;;;;;;29.27;12.20;;;4.90;99.90;;;;;;5071264;28;20063;-70
2021/01/05 08:39:13;;;;;;;34.72;13.13;;;4.70;99.90;;;;;;5073349;28;20036;-76
2021/01/05 08:41:42;;;;;;;35.05;12.30;;;4.80;99.90;;;;;;5070764;28;20064;-78
2021/01/05 08:44:07;;;;;;;27.88;12.35;;;4.80;99.90;;;;;;5070046;28;20041;-71
2021/01/05 08:46:33;;;;;;;30.20;12.02;;;4.80;99.90;;;;;;5071714;28;20036;-73
2021/01/05 08:48:59;;;;;;;36.88;12.65;;;4.70;99.90;;;;;;5071341;28;20132;-72
2021/01/05 08:51:24;;;;;;;32.78;13.75;;;4.70;99.90;;;;;;5071449;28;20100;-72
2021/01/05 08:53:51;;;;;;;34.17;12.30;;;4.70;99.90;;;;;;5071528;28;20112;-72
2021/01/05 08:56:19;;;;;;;33.15;12.38;;;4.60;99.90;;;;;;5070245;28;20049;-77
2021/01/05 08:58:45;;;;;;;39.47;13.82;;;4.60;99.90;;;;;;5071417;28;20051;-73
2021/01/05 09:01:11;;;;;;;37.58;13.82;;;4.60;99.90;;;;;;5071341;28;20028;-75
2021/01/05 09:03:36;;;;;;;39.47;13.98;;;4.70;99.90;;;;;;5070922;28;20056;-76
2021/01/05 09:06:02;;;;;;;36.05;13.45;;;4.70;99.90;;;;;;5073252;28;20036;-70
2021/01/05 09:08:30;;;;;;;36.42;14.18;;;4.80;99.90;;;;;;5071208;28;20048;-70
2021/01/05 09:11:08;;;;;;;34.15;12.60;;;4.80;99.90;;;;;;5071829;28;20047;-78
2021/01/05 09:13:36;;;;;;;33.40;13.82;;;4.80;99.90;;;;;;5071062;28;20029;-73
2021/01/05 09:16:02;;;;;;;36.80;13.77;;;4.80;99.90;;;;;;5070558;28;20115;-78
2021/01/05 09:18:27;;;;;;;30.50;12.50;;;4.90;99.90;;;;;;5071381;28;20103;-78
2021/01/05 09:20:56;;;;;;;42.55;14.63;;;4.80;99.90;;;;;;5072138;28;20048;-78
2021/01/05 09:23:23;;;;;;;33.90;14.45;;;4.80;99.90;;;;;;5070576;28;20498;-77
2021/01/05 09:25:54;;;;;;;35.72;14.73;;;4.80;99.90;;;;;;5071653;28;20070;-82
2021/01/05 09:28:21;;;;;;;34.55;12.93;;;4.80;99.90;;;;;;5071664;28;20121;-79
2021/01/05 09:30:50;;;;;;;27.75;13.13;;;4.80;99.90;;;;;;5071892;28;20041;-78
2021/01/05 09:33:18;;;;;;;37.72;13.27;;;4.80;99.90;;;;;;5071592;28;20035;-78
2021/01/05 09:35:43;;;;;;;34.37;14.53;;;4.90;99.90;;;;;;5072957;28;20039;-77
2021/01/05 09:38:10;;;;;;;33.92;14.95;;;5.00;99.90;;;;;;5070782;28;20046;-71
2021/01/05 09:40:40;;;;;;;33.90;13.75;;;5.00;99.90;;;;;;5071059;28;20047;-69
2021/01/05 09:43:07;;;;;;;44.25;16.83;;;5.00;99.90;;;;;;5071285;28;20032;-70
2021/01/05 09:45:33;;;;;;;36.30;13.05;;;5.00;99.90;;;;;;5071239;28;20060;-70
2021/01/05 09:48:17;;;;;;;32.30;12.55;;;4.90;99.90;;;;;;5072799;28;20082;-70
2021/01/05 09:50:44;;;;;;;40.58;14.10;;;4.90;99.90;;;;;;5071325;28;20454;-72
2021/01/05 09:53:11;;;;;;;33.90;12.45;;;5.00;99.90;;;;;;5071188;28;20051;-71
2021/01/05 09:55:37;;;;;;;32.65;12.82;;;5.00;99.90;;;;;;5070184;28;20102;-71
2021/01/05 09:58:03;;;;;;;37.40;12.73;;;5.00;99.90;;;;;;5071464;28;20047;-71
2021/01/05 10:00:29;;;;;;;32.58;13.43;;;5.00;99.90;;;;;;5071055;28;20020;-70
2021/01/05 10:02:55;;;;;;;32.58;13.10;;;5.00;99.90;;;;;;5072552;28;20342;-70
2021/01/05 10:05:21;;;;;;;33.13;12.73;;;5.00;99.90;;;;;;5074342;28;20037;-70
2021/01/05 10:07:48;;;;;;;33.10;13.00;;;5.20;99.90;;;;;;5074546;28;20140;-72
2021/01/05 10:10:17;;;;;;;29.23;12.52;;;5.10;99.90;;;;;;5073307;28;20036;-72
2021/01/05 10:12:43;;;;;;;33.67;12.50;;;5.10;99.90;;;;;;5074536;28;20385;-71
2021/01/05 10:15:09;;;;;;;34.30;13.20;;;5.10;99.90;;;;;;5074953;28;20500;-69
2021/01/05 10:17:35;;;;;;;35.95;12.95;;;5.20;99.90;;;;;;5074869;28;20036;-70
2021/01/05 10:20:00;;;;;;;37.08;12.93;;;5.20;99.90;;;;;;5074477;28;20409;-71
2021/01/05 10:22:26;;;;;;;33.13;12.55;;;5.20;99.90;;;;;;5072543;28;20029;-71
2021/01/05 10:24:52;;;;;;;27.05;12.18;;;5.20;99.90;;;;;;5074229;28;20084;-69
2021/01/05 10:27:17;;;;;;;29.77;12.38;;;5.40;99.90;;;;;;5073190;28;20516;-71
2021/01/05 10:29:43;;;;;;;30.83;12.77;;;5.30;99.90;;;;;;5075917;28;20028;-70
2021/01/05 10:32:09;;;;;;;34.08;11.95;;;5.30;99.90;;;;;;5074303;28;20039;-71
2021/01/05 10:34:34;;;;;;;26.13;11.73;;;5.30;99.90;;;;;;5074337;28;20037;-72
2021/01/05 10:37:00;;;;;;;32.33;12.30;;;5.30;99.90;;;;;;5073764;28;20094;-75
2021/01/05 10:39:28;;;;;;;27.98;11.90;;;5.20;99.90;;;;;;5074368;28;20448;-76
2021/01/05 10:41:54;;;;;;;;;;;5.20;99.90;;;;;;5076432;28;20112;-81
2021/01/05 10:44:22;;;;;;;31.20;12.10;;;5.20;99.90;;;;;;5074266;28;20003;-78
2021/01/05 10:46:48;;;;;;;;;;;5.20;99.90;;;;;;5074594;28;20139;-86
2021/01/05 10:49:15;;;;;;;26.55;10.93;;;5.20;99.90;;;;;;5072767;28;20023;-80
2021/01/05 10:51:48;;;;;;;17.90;10.23;;;5.20;99.90;;;;;;5072948;28;20479;-75
2021/01/05 10:54:16;;;;;;;24.13;11.00;;;5.30;99.90;;;;;;5072973;28;20353;-70
2021/01/05 10:56:42;;;;;;;26.98;9.93;;;5.30;99.90;;;;;;5074457;28;20039;-71
2021/01/05 10:59:08;;;;;;;24.25;10.88;;;5.30;99.90;;;;;;5074069;28;20123;-72
2021/01/05 11:01:33;;;;;;;21.48;10.23;;;5.30;99.90;;;;;;5073876;28;20055;-71
2021/01/05 11:03:59;;;;;;;22.58;10.63;;;5.30;99.90;;;;;;5073609;28;20033;-73
2021/01/05 11:06:25;;;;;;;20.00;9.70;;;5.30;99.90;;;;;;5072142;28;20106;-73
2021/01/05 11:08:50;;;;;;;19.42;9.85;;;5.30;99.90;;;;;;5074007;28;20500;-70
2021/01/05 11:11:19;;;;;;;22.55;10.38;;;5.20;99.90;;;;;;5073440;28;20036;-71
2021/01/05 11:13:45;;;;;;;22.15;9.85;;;5.20;99.90;;;;;;5060734;28;20033;-72
2021/01/05 11:16:11;;;;;;;22.48;10.75;;;5.10;99.90;;;;;;5051708;28;20112;-71
2021/01/05 11:18:40;;;;;;;23.70;11.25;;;5.10;99.90;;;;;;5053021;28;20062;-70
2021/01/05 11:21:09;;;;;;;22.15;10.80;;;5.10;99.90;;;;;;5054738;28;20052;-71
2021/01/05 11:23:35;;;;;;;22.42;10.20;;;5.20;99.90;;;;;;5053278;28;20087;-71
2021/01/05 11:26:00;;;;;;;21.15;10.25;;;5.10;99.90;;;;;;5053246;28;20033;-70
2021/01/05 11:28:26;;;;;;;22.17;10.68;;;5.20;99.90;;;;;;5053302;28;20067;-71
2021/01/05 11:30:52;;;;;;;21.42;10.70;;;5.10;99.90;;;;;;5052967;28;20128;-69
2021/01/05 11:33:17;;;;;;;22.75;10.25;;;5.10;99.90;;;;;;5053116;28;20454;-70
2021/01/05 11:35:43;;;;;;;19.77;10.20;;;5.10;99.90;;;;;;5054469;28;20474;-72
2021/01/05 11:38:10;;;;;;;23.00;10.50;;;5.10;99.90;;;;;;5052678;28;20079;-73
2021/01/05 11:40:36;;;;;;;19.63;9.38;;;5.20;99.90;;;;;;5051904;28;20033;-73
2021/01/05 11:43:02;;;;;;;25.90;10.77;;;5.20;99.90;;;;;;5052618;28;20187;-73
2021/01/05 11:45:28;;;;;;;18.88;9.93;;;5.20;99.90;;;;;;5054524;28;20495;-74
2021/01/05 11:47:53;;;;;;;17.40;9.05;;;5.20;99.90;;;;;;5074259;28;20039;-70
2021/01/05 11:50:19;;;;;;;20.40;9.95;;;5.20;99.90;;;;;;5072546;28;20470;-72
2021/01/05 11:52:45;;;;;;;18.75;9.50;;;5.10;99.90;;;;;;5072714;28;20047;-72
2021/01/05 11:55:11;;;;;;;20.30;9.48;;;5.10;99.90;;;;;;5072495;28;20025;-73
2021/01/05 11:57:37;;;;;;;18.25;9.25;;;5.20;99.90;;;;;;5072403;28;20035;-72
2021/01/05 12:00:08;;;;;;;18.25;9.43;;;5.20;99.90;;;;;;5073892;28;20024;-72
2021/01/05 12:02:34;;;;;;;21.65;8.82;;;5.20;99.90;;;;;;5072356;28;20091;-72
2021/01/05 12:05:00;;;;;;;17.50;8.52;;;5.20;99.90;;;;;;5071119;28;20036;-73
2021/01/05 12:07:25;;;;;;;17.13;8.32;;;5.20;99.90;;;;;;5072184;28;20362;-73
2021/01/05 12:09:54;;;;;;;13.20;7.68;;;5.10;99.90;;;;;;5072425;28;20067;-71
2021/01/05 12:12:20;;;;;;;24.55;11.88;;;5.20;99.90;;;;;;5072246;28;20024;-71
2021/01/05 12:14:46;;;;;;;20.08;8.75;;;5.30;99.90;;;;;;5072606;28;20029;-69
2021/01/05 12:17:11;;;;;;;16.73;7.95;;;5.30;99.90;;;;;;5070950;28;20024;-69
2021/01/05 12:19:41;;;;;;;19.05;8.10;;;5.30;99.90;;;;;;5071001;28;20041;-72
2021/01/05 12:22:08;;;;;;;14.98;8.07;;;5.30;99.90;;;;;;5071952;28;20025;-71
2021/01/05 12:24:37;;;;;;;16.85;7.60;;;5.30;99.90;;;;;;5072074;28;20047;-72
2021/01/05 12:27:05;;;;;;;17.33;9.07;;;5.30;99.90;;;;;;5071851;28;20028;-77
2021/01/05 12:29:34;;;;;;;16.98;8.15;;;5.30;99.90;;;;;;5071785;28;20082;-71
2021/01/05 12:32:06;;;;;;;19.15;8.80;;;5.30;99.90;;;;;;5070994;28;20409;-72
2021/01/05 12:34:35;;;;;;;15.93;7.88;;;5.40;99.90;;;;;;5071534;28;20048;-73
2021/01/05 12:37:02;;;;;;;15.43;7.82;;;5.40;99.90;;;;;;5071916;28;20063;-72
2021/01/05 12:39:33;;;;;;;14.18;8.23;;;5.50;99.90;;;;;;5071874;28;20036;-70
2021/01/05 12:42:11;;;;;;;16.55;8.23;;;5.40;99.90;;;;;;5073381;28;20024;-73
2021/01/05 12:44:37;;;;;;;14.20;7.30;;;5.50;99.90;;;;;;5070637;28;20054;-72
2021/01/05 12:47:03;;;;;;;15.23;7.57;;;5.50;99.90;;;;;;5071704;28;20033;-70
2021/01/05 12:49:29;;;;;;;15.73;7.95;;;5.70;99.90;;;;;;5071858;28;20039;-71
2021/01/05 12:51:54;;;;;;;16.30;8.30;;;5.70;99.90;;;;;;5071814;28;20047;-73
2021/01/05 12:54:25;;;;;;;15.77;7.03;;;5.80;99.90;;;;;;5070714;28;20025;-71
2021/01/05 12:56:53;;;;;;;14.15;7.70;;;5.80;99.90;;;;;;5073044;28;20107;-72
2021/01/05 12:59:19;;;;;;;;;;;5.90;99.90;;;;;;5072020;28;20365;-69